Time;durP1;ratioP1;P1;durP2;ratioP2;P2;SDS_P1;SDS_P2;PMS_P1;PMS_P2;Temp;Humidity;BMP_temperature;BMP_pressure;BME280_temperature;BME280_humidity;BME280_pressure;Samples;Min_cycle;Max_cycle;Signal;HPM_P1;HPM_P2
2021/09/24 00:01:16;;;;;;;7.25;4.68;;;;;;;7.02;81.27;97242.06;5002982;28;20061;-64
2021/09/24 00:03:43;;;;;;;6.20;3.60;;;;;;;7.39;80.81;97294.13;5002707;28;20133;-63
2021/09/24 00:06:10;;;;;;;7.75;4.18;;;;;;;6.26;81.91;97150.19;5002969;28;20572;-63
2021/09/24 00:08:37;;;;;;;8.73;4.00;;;;;;;7.20;81.49;97302.13;5001377;28;20141;-63
2021/09/24 00:11:03;;;;;;;6.93;3.85;;;;;;;7.17;81.86;97308.34;5002383;28;20056;-64
2021/09/24 00:13:30;;;;;;;6.28;3.58;;;;;;;7.17;82.82;97280.78;5003182;28;20054;-63
2021/09/24 00:15:57;;;;;;;8.95;3.40;;;;;;;7.08;83.64;97271.81;5002913;28;20133;-63
2021/09/24 00:18:24;;;;;;;6.05;3.17;;;;;;;6.73;81.51;97204.53;5002666;28;20132;-63
2021/09/24 00:20:51;;;;;;;5.75;3.25;;;;;;;7.12;81.80;97277.44;5002664;28;20050;-63
2021/09/24 00:23:17;;;;;;;6.47;3.42;;;;;;;7.08;82.06;97287.53;5002567;28;20498;-63
2021/09/24 00:25:44;;;;;;;6.55;3.83;;;;;;;6.54;81.79;97217.22;5002177;28;20144;-63
2021/09/24 00:28:11;;;;;;;6.97;3.88;;;;;;;6.86;82.43;97279.69;5003129;28;20118;-63
2021/09/24 00:30:38;;;;;;;8.93;4.50;;;;;;;6.91;82.13;97283.03;5002350;28;20512;-63
2021/09/24 00:33:05;;;;;;;6.18;4.07;;;;;;;6.09;82.22;97167.66;5002348;28;20551;-64
2021/09/24 00:35:32;;;;;;;8.15;4.60;;;;;;;6.74;83.02;97293.41;5002286;28;20141;-63
2021/09/24 00:37:59;;;;;;;4.85;3.15;;;;;;;6.73;83.33;97286.31;5003010;28;20133;-63
2021/09/24 00:40:25;;;;;;;6.10;3.47;;;;;;;6.27;83.39;97229.63;5000995;28;20046;-63
2021/09/24 00:42:52;;;;;;;7.13;4.13;;;;;;;6.48;84.38;97290.13;5002372;28;20607;-64
2021/09/24 00:45:19;;;;;;;7.28;4.20;;;;;;;6.04;85.67;97220.91;5002381;28;20085;-63
2021/09/24 00:47:46;;;;;;;7.10;3.80;;;;;;;6.48;85.45;97285.41;5002162;28;20500;-63
2021/09/24 00:50:13;;;;;;;7.38;3.83;;;;;;;4.27;85.98;96915.25;5002541;28;20134;-63
2021/09/24 00:52:40;;;;;;;7.15;4.07;;;;;;;6.56;86.27;97264.47;5002574;28;20077;-63
2021/09/24 00:55:08;;;;;;;8.50;4.88;;;;;;;6.50;85.66;97280.38;5002230;28;20098;-63
2021/09/24 00:57:34;;;;;;;6.60;3.78;;;;;;;6.50;85.19;97260.28;5002748;28;20104;-63
2021/09/24 01:00:03;;;;;;;5.07;3.72;;;;;;;6.49;86.20;97275.19;5000567;28;20132;-63
2021/09/24 01:02:30;;;;;;;8.38;3.97;;;;;;;6.57;85.00;97261.38;5002322;28;20054;-63
2021/09/24 01:04:58;;;;;;;9.20;3.28;;;;;;;6.01;84.22;97163.03;5000517;28;20053;-63
2021/09/24 01:07:25;;;;;;;7.57;3.42;;;;;;;6.42;85.53;97231.72;5000822;28;20140;-63
2021/09/24 01:09:52;;;;;;;5.55;3.53;;;;;;;6.63;85.01;97240.75;5001702;28;20133;-63
2021/09/24 01:12:19;;;;;;;9.82;4.75;;;;;;;6.64;85.43;97250.59;5000246;28;20137;-64
2021/09/24 01:14:57;;;;;;;6.13;3.97;;;;;;;6.71;83.76;97250.84;5001688;28;20106;-62
2021/09/24 01:17:23;;;;;;;8.57;4.15;;;;;;;6.73;82.71;97254.09;5002042;28;20053;-63
2021/09/24 01:19:50;;;;;;;6.85;3.90;;;;;;;6.66;83.06;97247.50;5002152;28;20054;-64
2021/09/24 01:22:17;;;;;;;7.97;4.93;;;;;;;6.20;84.15;97190.06;5000662;28;20060;-63
2021/09/24 01:24:44;;;;;;;11.55;7.35;;;;;;;4.45;84.39;96894.81;5001731;28;20148;-62
2021/09/24 01:27:11;;;;;;;9.15;6.07;;;;;;;6.71;84.11;97245.34;4999992;28;20077;-62
2021/09/24 01:29:38;;;;;;;7.32;5.22;;;;;;;6.63;84.19;97260.00;5000041;28;20145;-62
2021/09/24 01:32:05;;;;;;;8.70;5.35;;;;;;;6.72;83.98;97243.41;5001876;28;20080;-63
2021/09/24 01:34:32;;;;;;;8.50;5.45;;;;;;;6.27;83.97;97174.59;4999740;28;20064;-62
2021/09/24 01:36:59;;;;;;;7.88;4.95;;;;;;;6.64;84.20;97239.59;5001662;28;20056;-62
2021/09/24 01:39:25;;;;;;;6.50;4.70;;;;;;;6.55;84.60;97229.81;5001262;28;20435;-64
2021/09/24 01:41:53;;;;;;;5.97;4.10;;;;;;;6.62;84.37;97241.09;5001951;28;20053;-62
2021/09/24 01:44:19;;;;;;;6.88;4.35;;;;;;;6.60;84.53;97240.59;5001067;28;20067;-62
2021/09/24 01:46:47;;;;;;;7.85;4.30;;;;;;;6.48;85.27;97226.81;5000953;28;20137;-62
2021/09/24 01:49:14;;;;;;;12.52;4.45;;;;;;;6.43;85.41;97238.84;4999857;28;20141;-63
2021/09/24 01:51:43;;;;;;;8.95;4.72;;;;;;;6.07;84.84;97191.94;5001528;28;21067;-63
2021/09/24 01:54:12;;;;;;;8.65;4.38;;;;;;;6.18;85.39;97217.88;5000323;28;20452;-62
2021/09/24 01:56:38;;;;;;;10.95;4.93;;;;;;;6.22;86.35;97227.06;5001497;28;20057;-63
2021/09/24 01:59:05;;;;;;;9.02;5.88;;;;;;;5.36;85.58;97072.31;5001091;28;20520;-62
2021/09/24 02:01:32;;;;;;;6.57;4.38;;;;;;;6.35;85.05;97203.97;5001211;28;20046;-63
2021/09/24 02:03:59;;;;;;;7.93;4.55;;;;;;;5.85;85.26;97132.63;5000713;28;20046;-63
2021/09/24 02:06:27;;;;;;;6.60;4.43;;;;;;;5.54;85.42;97091.03;5001067;28;20052;-64
2021/09/24 02:08:53;;;;;;;7.80;4.35;;;;;;;5.71;86.60;97145.84;5001269;28;20054;-64
2021/09/24 02:11:20;;;;;;;11.10;4.82;;;;;;;6.17;86.58;97213.53;5000837;28;20802;-63
2021/09/24 02:13:47;;;;;;;8.77;5.00;;;;;;;5.58;86.69;97129.63;5000201;28;20557;-63
2021/09/24 02:16:14;;;;;;;7.75;4.38;;;;;;;6.21;86.17;97214.47;5001306;28;20119;-63
2021/09/24 02:18:43;;;;;;;6.90;4.22;;;;;;;6.26;85.18;97216.22;4999668;28;20058;-63
2021/09/24 02:21:10;;;;;;;10.82;4.30;;;;;;;6.27;85.23;97212.31;5000026;28;20501;-62
2021/09/24 02:23:37;;;;;;;8.52;4.82;;;;;;;5.97;85.47;97186.88;5007268;28;20049;-63
2021/09/24 02:26:05;;;;;;;7.60;4.25;;;;;;;6.11;86.41;97217.63;5007247;28;20421;-64
2021/09/24 02:28:33;;;;;;;7.95;4.68;;;;;;;6.16;85.10;97211.94;5007120;28;20064;-61
2021/09/24 02:31:00;;;;;;;12.98;7.05;;;;;;;6.02;85.52;97223.19;5007317;28;20140;-64
2021/09/24 02:33:27;;;;;;;9.43;6.18;;;;;;;6.04;85.43;97209.09;5007457;28;20497;-64
2021/09/24 02:35:54;;;;;;;14.07;7.35;;;;;;;5.99;85.33;97212.88;5004534;28;20480;-62
2021/09/24 02:38:21;;;;;;;13.35;6.45;;;;;;;6.00;85.06;97219.19;5005803;28;20081;-62
2021/09/24 02:40:48;;;;;;;10.52;5.45;;;;;;;5.62;85.77;97185.50;5006651;28;20606;-64
2021/09/24 02:43:14;;;;;;;8.93;5.25;;;;;;;5.86;86.41;97224.94;5007818;28;20080;-63
2021/09/24 02:45:41;;;;;;;8.73;5.07;;;;;;;5.44;86.42;97184.00;5005213;28;20054;-62
2021/09/24 02:48:08;;;;;;;9.75;5.40;;;;;;;5.86;86.37;97222.19;5007524;28;20064;-63
2021/09/24 02:50:35;;;;;;;8.13;4.93;;;;;;;5.76;85.81;97199.78;5007631;28;20137;-63
2021/09/24 02:53:02;;;;;;;8.02;5.05;;;;;;;5.80;87.42;97214.47;5007333;28;20053;-63
2021/09/24 02:55:28;;;;;;;9.95;5.57;;;;;;;5.74;88.12;97215.78;5006888;28;20443;-62
2021/09/24 02:57:55;;;;;;;8.90;5.25;;;;;;;5.75;87.34;97223.69;5006830;28;20520;-62
2021/09/24 03:00:22;;;;;;;9.48;5.10;;;;;;;5.65;88.27;97210.38;5007158;28;20367;-62
2021/09/24 03:02:49;;;;;;;8.48;5.10;;;;;;;5.86;86.43;97207.66;5007099;28;20486;-62
2021/09/24 03:05:16;;;;;;;8.43;4.50;;;;;;;5.64;86.60;97194.22;5005576;28;20065;-62
2021/09/24 03:07:43;;;;;;;8.05;4.90;;;;;;;5.71;87.20;97221.97;5007068;28;20060;-62
2021/09/24 03:10:10;;;;;;;10.52;5.63;;;;;;;5.46;87.71;97154.28;5006976;28;20058;-63
2021/09/24 03:12:37;;;;;;;8.73;5.03;;;;;;;5.66;86.95;97208.41;5005692;28;20526;-62
2021/09/24 03:15:06;;;;;;;10.60;5.35;;;;;;;5.83;86.99;97230.31;5006491;28;20142;-62
2021/09/24 03:17:33;;;;;;;10.25;5.57;;;;;;;5.70;87.70;97209.38;5006620;28;20092;-62
2021/09/24 03:20:00;;;;;;;10.63;5.35;;;;;;;5.75;88.46;97222.91;5006328;28;20085;-62
2021/09/24 03:22:27;;;;;;;12.00;6.25;;;;;;;5.81;88.23;97210.56;5006840;28;20447;-62
2021/09/24 03:24:54;;;;;;;10.98;5.15;;;;;;;5.68;88.11;97209.72;5006470;28;20665;-62
2021/09/24 03:27:21;;;;;;;10.45;5.63;;;;;;;5.58;87.65;97212.84;5005135;28;20156;-62
2021/09/24 03:29:48;;;;;;;10.80;5.28;;;;;;;5.24;87.41;97140.88;5005568;28;20133;-62
2021/09/24 03:32:18;;;;;;;8.00;5.00;;;;;;;5.65;87.30;97218.63;5006615;28;20065;-62
2021/09/24 03:34:47;;;;;;;8.82;5.57;;;;;;;5.53;87.93;97209.50;5001308;28;20085;-62
2021/09/24 03:37:14;;;;;;;10.80;5.85;;;;;;;5.17;87.74;97163.34;5003379;28;20054;-61
2021/09/24 03:39:42;;;;;;;9.35;5.10;;;;;;;5.43;87.20;97226.38;5002806;28;20061;-62
2021/09/24 03:42:09;;;;;;;10.27;5.90;;;;;;;5.43;87.11;97226.38;5001656;28;20132;-62
2021/09/24 03:44:36;;;;;;;10.75;6.10;;;;;;;5.31;87.54;97204.31;5003290;28;20081;-61
2021/09/24 03:47:04;;;;;;;9.25;5.82;;;;;;;5.26;88.60;97210.00;5002931;28;20092;-63
2021/09/24 03:49:31;;;;;;;9.50;6.18;;;;;;;4.99;88.31;97150.06;5002202;28;20580;-62
2021/09/24 03:52:00;;;;;;;9.77;5.47;;;;;;;5.15;88.71;97197.78;5002133;28;20485;-62
2021/09/24 03:54:27;;;;;;;11.13;6.30;;;;;;;4.84;88.56;97128.69;5003035;28;20088;-62
2021/09/24 03:56:54;;;;;;;9.23;5.97;;;;;;;4.71;88.50;97080.34;5001781;28;20141;-62
2021/09/24 03:59:22;;;;;;;16.35;8.80;;;;;;;4.93;87.28;97107.50;5002916;28;20496;-62
2021/09/24 04:01:49;;;;;;;29.15;17.05;;;;;;;5.52;87.06;97213.38;5003311;28;20129;-63
2021/09/24 04:04:16;;;;;;;29.10;20.48;;;;;;;5.12;87.08;97160.00;5001779;28;20057;-62
2021/09/24 04:06:42;;;;;;;23.10;13.88;;;;;;;5.46;87.91;97209.22;5003462;28;20097;-62
2021/09/24 04:09:10;;;;;;;26.38;14.43;;;;;;;5.40;88.06;97194.06;5002751;28;20432;-62
2021/09/24 04:11:38;;;;;;;16.70;9.80;;;;;;;5.50;88.00;97212.91;5003007;28;20058;-62
2021/09/24 04:14:06;;;;;;;13.75;9.02;;;;;;;5.38;89.29;97218.31;5002885;28;20500;-63
2021/09/24 04:16:33;;;;;;;16.30;9.32;;;;;;;5.40;90.21;97191.31;5001380;28;20057;-62
2021/09/24 04:19:00;;;;;;;16.25;9.80;;;;;;;5.57;90.47;97204.94;5002871;28;20133;-63
2021/09/24 04:21:27;;;;;;;21.15;11.00;;;;;;;5.77;88.75;97198.66;5003106;28;20053;-63
2021/09/24 04:23:53;;;;;;;16.60;9.35;;;;;;;5.49;86.79;97131.63;5003115;28;20145;-63
2021/09/24 04:26:20;;;;;;;16.75;7.10;;;;;;;5.41;87.42;97124.25;5002002;28;20525;-63
2021/09/24 04:28:47;;;;;;;9.05;6.38;;;;;;;5.52;87.90;97114.47;5002395;28;20515;-63
2021/09/24 04:31:14;;;;;;;14.85;6.47;;;;;;;6.08;87.88;97199.06;5002502;28;20050;-62
2021/09/24 04:33:41;;;;;;;11.65;6.38;;;;;;;6.00;86.70;97184.25;5002270;28;20046;-63
2021/09/24 04:36:07;;;;;;;17.30;7.90;;;;;;;6.17;85.86;97175.03;5001035;28;20472;-61
2021/09/24 04:38:34;;;;;;;10.27;6.15;;;;;;;5.96;85.22;97114.59;5002733;28;20505;-61
2021/09/24 04:41:01;;;;;;;12.93;7.20;;;;;;;6.35;86.19;97187.47;5002109;28;20058;-61
2021/09/24 04:43:27;;;;;;;16.02;7.90;;;;;;;6.44;86.49;97179.94;5002416;28;20054;-61
2021/09/24 04:45:54;;;;;;;10.55;6.78;;;;;;;6.56;86.59;97176.41;4983943;28;20062;-62
2021/09/24 04:48:21;;;;;;;17.23;8.45;;;;;;;6.67;84.25;97181.09;4982437;28;20054;-61
2021/09/24 04:50:47;;;;;;;14.98;8.63;;;;;;;6.69;84.49;97187.06;4980918;28;20059;-63
2021/09/24 04:53:14;;;;;;;10.98;6.50;;;;;;;6.11;83.11;97067.22;4982658;28;20085;-62
2021/09/24 04:55:41;;;;;;;13.27;7.18;;;;;;;6.86;82.73;97203.38;4981184;28;20051;-61
2021/09/24 04:58:08;;;;;;;12.13;7.75;;;;;;;7.01;82.30;97177.94;4988461;28;20459;-62
2021/09/24 05:00:35;;;;;;;19.45;9.57;;;;;;;6.73;81.96;97121.97;5001829;28;20053;-62
2021/09/24 05:03:02;;;;;;;21.73;10.18;;;;;;;6.99;82.44;97174.72;5000322;28;20045;-61
2021/09/24 05:05:28;;;;;;;21.25;11.02;;;;;;;6.52;81.97;97082.72;5001696;28;20049;-61
2021/09/24 05:07:55;;;;;;;19.00;10.25;;;;;;;7.30;81.00;97174.94;5001798;28;20087;-63
2021/09/24 05:10:22;;;;;;;20.20;11.30;;;;;;;7.39;80.54;97181.13;5000168;28;20057;-64
2021/09/24 05:12:48;;;;;;;23.27;14.27;;;;;;;7.10;79.80;97120.78;5000363;28;20057;-63
2021/09/24 05:15:15;;;;;;;22.52;11.93;;;;;;;7.69;79.51;97170.63;5001864;28;20057;-63
2021/09/24 05:17:42;;;;;;;19.23;12.07;;;;;;;8.06;77.71;97174.06;5001966;28;20056;-64
2021/09/24 05:20:09;;;;;;;18.55;10.48;;;;;;;8.23;76.83;97174.59;5000288;28;20142;-62
2021/09/24 05:22:36;;;;;;;14.27;7.32;;;;;;;8.40;77.46;97171.53;5000297;28;20050;-61
2021/09/24 05:25:04;;;;;;;15.98;8.25;;;;;;;8.75;76.34;97169.72;4999780;28;20058;-63
2021/09/24 05:27:30;;;;;;;10.10;6.55;;;;;;;8.82;75.30;97147.00;5001727;28;20058;-63
2021/09/24 05:29:58;;;;;;;11.70;6.45;;;;;;;9.25;74.86;97177.25;5001125;28;20050;-64
2021/09/24 05:32:25;;;;;;;10.07;6.03;;;;;;;9.47;73.83;97173.84;5002236;28;20060;-63
2021/09/24 05:34:52;;;;;;;11.57;5.75;;;;;;;9.30;72.51;97107.88;5001810;28;20046;-62
2021/09/24 05:37:18;;;;;;;11.52;5.93;;;;;;;10.00;70.06;97164.78;5001591;28;20050;-63
2021/09/24 05:39:46;;;;;;;11.20;5.88;;;;;;;9.49;68.68;97055.41;5001522;28;20758;-65
2021/09/24 05:42:14;;;;;;;13.60;7.05;;;;;;;10.37;68.21;97163.16;5000119;28;20061;-64
2021/09/24 05:44:40;;;;;;;12.45;7.30;;;;;;;10.35;68.14;97151.66;4999855;28;20535;-64
2021/09/24 05:47:07;;;;;;;14.35;7.32;;;;;;;10.17;67.95;97102.66;5001390;28;20062;-64
2021/09/24 05:49:34;;;;;;;16.20;7.60;;;;;;;10.84;68.28;97164.84;5000749;28;20054;-63
2021/09/24 05:52:01;;;;;;;21.58;8.55;;;;;;;10.89;67.26;97131.28;5001931;28;20054;-64
2021/09/24 05:54:28;;;;;;;11.45;7.60;;;;;;;11.31;65.10;97152.19;5001636;28;20056;-64
2021/09/24 05:56:55;;;;;;;11.77;7.55;;;;;;;10.97;65.08;97069.25;4999088;28;20062;-63
2021/09/24 05:59:22;;;;;;;11.05;6.88;;;;;;;11.76;64.96;97143.75;5001083;28;20144;-63
2021/09/24 06:01:48;;;;;;;11.07;7.03;;;;;;;12.09;63.57;97126.38;5001291;28;20049;-64
2021/09/24 06:04:21;;;;;;;11.25;7.38;;;;;;;12.24;62.35;97178.13;4988041;28;20490;-63
2021/09/24 06:06:48;;;;;;;12.80;7.20;;;;;;;12.02;61.49;97076.28;4998765;28;20056;-61
2021/09/24 06:09:15;;;;;;;13.85;6.93;;;;;;;12.17;61.33;97101.06;4998282;28;20058;-58
2021/09/24 06:11:42;;;;;;;11.10;6.53;;;;;;;12.42;61.41;97143.03;4995993;28;20045;-64
2021/09/24 06:14:10;;;;;;;12.10;7.25;;;;;;;12.29;60.23;97096.44;4998888;28;20042;-68
2021/09/24 06:16:37;;;;;;;12.77;7.63;;;;;;;12.11;60.04;97087.88;4999298;28;20057;-63
2021/09/24 06:19:04;;;;;;;16.58;7.95;;;;;;;12.67;61.08;97146.88;5000220;28;20756;-68
2021/09/24 06:21:32;;;;;;;14.50;7.13;;;;;;;12.57;61.19;97113.38;5000760;28;20057;-69
2021/09/24 06:23:58;;;;;;;16.38;7.38;;;;;;;12.75;59.66;97103.25;4999220;28;20133;-67
2021/09/24 06:26:25;;;;;;;11.93;6.85;;;;;;;13.02;59.35;97135.31;5000379;28;20061;-68
2021/09/24 06:28:52;;;;;;;12.18;7.13;;;;;;;12.94;59.40;97128.88;4999302;28;20054;-68
2021/09/24 06:31:19;;;;;;;11.68;7.13;;;;;;;11.59;63.11;96991.69;4996035;28;20043;-70
2021/09/24 06:33:45;;;;;;;10.60;7.50;;;;;;;11.69;65.62;97067.94;4997326;28;20335;-59
2021/09/24 06:36:17;;;;;;;16.65;7.18;;;;;;;12.15;65.94;97094.31;4999028;28;20507;-75
2021/09/24 06:38:45;;;;;;;28.63;14.20;;;;;;;12.56;65.75;97120.94;4989555;28;20058;-64
2021/09/24 06:41:13;;;;;;;11.93;6.70;;;;;;;12.66;65.88;97123.03;5038480;28;20069;-70
2021/09/24 06:43:40;;;;;;;15.30;6.72;;;;;;;12.97;64.50;97127.28;4990677;28;20046;-72
2021/09/24 06:46:07;;;;;;;13.23;7.20;;;;;;;12.33;63.86;97025.84;4998252;28;20068;-76
2021/09/24 06:48:34;;;;;;;9.32;6.03;;;;;;;12.65;63.68;97060.28;5000738;28;20066;-69
2021/09/24 06:51:02;;;;;;;12.30;5.90;;;;;;;13.03;60.18;97070.97;5000038;28;20057;-63
2021/09/24 06:53:29;;;;;;;7.28;5.60;;;;;;;12.65;59.66;97003.91;4995597;28;20053;-63
2021/09/24 06:55:57;;;;;;;7.93;5.32;;;;;;;12.91;61.33;97126.88;5000192;28;20056;-61
2021/09/24 06:58:24;;;;;;;9.77;5.93;;;;;;;12.85;61.42;97133.94;4996641;28;20049;-63
2021/09/24 07:00:51;;;;;;;11.15;5.43;;;;;;;13.13;60.92;97145.38;4991257;28;20179;-73
2021/09/24 07:03:18;;;;;;;9.10;5.30;;;;;;;13.30;61.48;97141.91;5000255;28;20061;-72
2021/09/24 07:05:45;;;;;;;9.10;6.30;;;;;;;12.73;61.35;97017.47;4980191;28;20093;-74
2021/09/24 07:08:12;;;;;;;9.73;6.47;;;;;;;13.65;60.58;97128.25;4996002;28;20057;-68
2021/09/24 07:10:38;;;;;;;10.30;5.30;;;;;;;13.95;59.84;97132.78;4993209;28;20046;-70
2021/09/24 07:13:05;;;;;;;9.07;5.50;;;;;;;13.58;58.55;97047.50;4984148;28;20054;-72
2021/09/24 07:15:32;;;;;;;7.20;5.22;;;;;;;14.23;58.00;97116.19;4985492;28;20050;-67
2021/09/24 07:17:59;;;;;;;9.25;5.40;;;;;;;14.13;58.81;97153.97;4994742;28;20050;-67
2021/09/24 07:20:26;;;;;;;8.35;5.20;;;;;;;14.59;57.85;97140.28;5000225;28;20085;-70
2021/09/24 07:23:03;;;;;;;12.73;5.53;;;;;;;14.91;56.54;97135.53;4985625;28;20599;-67
2021/09/24 07:25:30;;;;;;;6.97;4.80;;;;;;;14.77;54.48;97074.16;4992290;28;20085;-76
2021/09/24 07:27:57;;;;;;;6.05;4.20;;;;;;;15.47;53.33;97141.19;4990590;28;20089;-68
2021/09/24 07:30:24;;;;;;;7.68;5.10;;;;;;;15.60;51.60;97127.63;4997870;28;20673;-66
2021/09/24 07:32:50;;;;;;;7.10;5.35;;;;;;;15.12;50.55;97010.81;5016317;28;20524;-67
2021/09/24 07:35:17;;;;;;;9.50;5.80;;;;;;;15.99;51.36;97123.56;4998722;28;20041;-68
2021/09/24 07:37:44;;;;;;;8.55;5.53;;;;;;;16.27;50.29;97117.06;5049727;28;20431;-66
2021/09/24 07:40:11;;;;;;;7.53;5.07;;;;;;;16.37;50.31;97117.03;5001308;28;20058;-67
2021/09/24 07:42:38;;;;;;;6.47;5.63;;;;;;;16.52;49.87;97118.56;5003317;28;20050;-68
2021/09/24 07:45:06;;;;;;;7.50;6.05;;;;;;;16.21;49.86;97063.59;5001908;28;20054;-68
2021/09/24 07:47:33;;;;;;;8.15;5.60;;;;;;;16.63;48.28;97123.31;5003126;28;20066;-67
2021/09/24 07:50:00;;;;;;;14.93;8.52;;;;;;;15.52;49.26;97120.44;5001247;28;20128;-67
2021/09/24 07:52:27;;;;;;;11.40;7.35;;;;;;;16.15;49.18;97137.88;5003209;28;20135;-67
2021/09/24 07:54:55;;;;;;;8.45;4.72;;;;;;;16.71;47.09;97130.47;5001259;28;20053;-68
2021/09/24 07:57:21;;;;;;;5.95;4.60;;;;;;;16.91;47.23;97139.94;5002191;28;20060;-68
2021/09/24 07:59:48;;;;;;;5.50;4.20;;;;;;;17.08;46.46;97139.03;5000204;28;20439;-72
2021/09/24 08:02:16;;;;;;;6.40;4.50;;;;;;;17.19;45.43;97129.34;4993505;28;20367;-70
2021/09/24 08:04:43;;;;;;;6.72;4.82;;;;;;;15.05;45.99;96845.41;4989270;28;20054;-69
2021/09/24 08:07:09;;;;;;;6.68;4.60;;;;;;;16.26;44.75;96982.09;5003306;28;20049;-73
2021/09/24 08:09:36;;;;;;;5.25;4.57;;;;;;;17.36;44.33;97122.81;4987503;28;20556;-63
2021/09/24 08:12:03;;;;;;;4.55;4.13;;;;;;;17.51;43.71;97118.72;4989764;28;20056;-70
2021/09/24 08:14:30;;;;;;;5.22;4.30;;;;;;;17.60;43.05;97073.41;4991597;28;20046;-63
2021/09/24 08:16:57;;;;;;;3.95;3.55;;;;;;;17.73;41.78;97066.06;4992491;28;20046;-61
2021/09/24 08:19:24;;;;;;;8.98;4.20;;;;;;;17.51;42.63;97064.69;4985038;28;20124;-74
2021/09/24 08:21:51;;;;;;;7.40;4.60;;;;;;;18.06;42.66;97094.13;4993423;28;20575;-62
2021/09/24 08:24:18;;;;;;;5.97;3.83;;;;;;;17.86;40.97;97047.53;4997641;28;20050;-67
2021/09/24 08:26:45;;;;;;;5.57;3.80;;;;;;;16.27;40.74;96804.78;5000669;28;20049;-63
2021/09/24 08:29:11;;;;;;;7.90;4.00;;;;;;;18.23;40.19;97095.13;4992386;28;20480;-64
2021/09/24 08:31:38;;;;;;;7.10;4.55;;;;;;;18.18;40.04;97092.00;4989871;28;20042;-61
2021/09/24 08:34:05;;;;;;;5.88;3.80;;;;;;;18.10;40.46;97088.47;5009593;28;20176;-61
2021/09/24 08:36:33;;;;;;;7.90;4.40;;;;;;;18.08;40.96;97077.66;4996116;28;20058;-62
2021/09/24 08:39:00;;;;;;;4.75;4.25;;;;;;;17.79;41.00;97033.56;5024693;28;20071;-63
2021/09/24 08:41:29;;;;;;;6.90;4.15;;;;;;;17.98;41.09;97080.59;5038151;28;20052;-63
2021/09/24 08:43:58;;;;;;;6.07;4.22;;;;;;;17.81;40.77;97028.34;4999663;28;20045;-62
2021/09/24 08:46:26;;;;;;;4.82;3.80;;;;;;;17.50;40.05;96928.66;4991987;28;20430;-71
2021/09/24 08:48:53;;;;;;;5.45;4.15;;;;;;;18.17;39.81;97009.06;4991450;28;20125;-60
2021/09/24 08:51:20;;;;;;;4.72;3.88;;;;;;;18.61;40.00;97051.78;4987531;28;20049;-62
2021/09/24 08:53:47;;;;;;;5.97;3.97;;;;;;;17.97;40.47;97051.00;4994291;28;20047;-77
2021/09/24 08:56:14;;;;;;;6.88;4.22;;;;;;;18.02;41.16;97053.31;4982668;28;20065;-77
2021/09/24 08:58:41;;;;;;;8.52;4.30;;;;;;;18.29;41.39;97045.75;4983134;28;20935;-60
2021/09/24 09:01:08;;;;;;;9.07;4.53;;;;;;;18.59;40.64;97042.19;4988205;28;20078;-64
2021/09/24 09:03:43;;;;;;;5.00;4.15;;;;;;;18.02;40.45;96963.59;4982610;28;20071;-71
2021/09/24 09:06:14;;;;;;;8.55;4.05;;;;;;;18.99;40.39;97055.19;4988674;28;20255;-67
2021/09/24 09:08:41;;;;;;;6.93;4.55;;;;;;;19.29;39.89;97039.09;4987973;28;20125;-64
2021/09/24 09:11:20;;;;;;;5.70;4.38;;;;;;;19.07;40.07;97006.94;4988558;28;20050;-63
2021/09/24 09:13:53;;;;;;;4.45;4.05;;;;;;;19.43;39.18;97041.66;4990814;28;20192;-67
2021/09/24 09:16:31;;;;;;;4.97;4.50;;;;;;;18.48;41.24;97039.53;4991187;28;20050;-74
2021/09/24 09:19:04;;;;;;;9.63;4.53;;;;;;;18.24;41.38;97043.41;4992671;28;20057;-65
2021/09/24 09:21:30;;;;;;;6.13;5.10;;;;;;;17.58;42.06;96977.78;4982329;28;20051;-74
2021/09/24 09:23:57;;;;;;;5.25;4.70;;;;;;;17.49;43.17;97053.09;4993822;28;20909;-68
2021/09/24 09:26:25;;;;;;;6.97;4.32;;;;;;;17.79;42.13;97011.16;4999713;28;20508;-75
2021/09/24 09:28:55;;;;;;;6.22;4.97;;;;;;;18.39;42.31;97049.66;5000172;28;20517;-64
2021/09/24 09:31:33;;;;;;;8.65;4.95;;;;;;;18.55;41.71;97047.03;4998138;28;20042;-63
2021/09/24 09:34:02;;;;;;;5.22;3.80;;;;;;;17.94;41.08;96968.53;4305233;28;20004509;-61
2021/09/24 09:36:29;;;;;;;5.15;4.13;;;;;;;18.65;41.44;97035.66;4998941;28;20050;-63
2021/09/24 09:38:57;;;;;;;4.97;3.85;;;;;;;18.96;41.08;97017.56;4986988;28;20612;-63
2021/09/24 09:41:26;;;;;;;6.43;5.10;;;;;;;18.97;40.55;97019.13;4989834;28;20045;-64
2021/09/24 09:43:58;;;;;;;8.90;5.25;;;;;;;18.76;41.88;97019.47;4982072;28;20537;-64
2021/09/24 09:46:32;;;;;;;6.45;4.07;;;;;;;18.61;41.20;97015.28;4981411;28;20066;-64
2021/09/24 09:49:09;;;;;;;7.47;4.22;;;;;;;18.79;40.50;97024.25;4981823;28;20361;-66
2021/09/24 09:51:41;;;;;;;5.80;3.72;;;;;;;18.32;40.48;96915.91;4981658;28;20073;-64
2021/09/24 09:54:10;;;;;;;4.10;3.70;;;;;;;17.76;39.53;96763.44;4982235;28;20058;-64
2021/09/24 09:56:49;;;;;;;9.07;4.05;;;;;;;19.41;38.95;96976.66;4981166;28;20058;-64
2021/09/24 09:59:48;;;;;;;5.13;4.03;;;;;;;19.71;39.11;96983.34;4987122;28;20046;-63
2021/09/24 10:02:16;;;;;;;4.05;3.65;;;;;;;19.77;39.05;97012.53;5000873;28;20136;-64
2021/09/24 10:04:51;;;;;;;4.85;3.80;;;;;;;19.82;39.45;97006.41;5000674;28;20171;-64
2021/09/24 10:07:29;;;;;;;5.57;3.75;;;;;;;19.74;39.30;97005.75;4999623;28;20061;-63
2021/09/24 10:10:12;;;;;;;6.65;3.90;;;;;;;19.98;39.47;96995.22;5000607;28;20517;-66
2021/09/24 10:12:40;;;;;;;7.22;4.28;;;;;;;20.17;38.90;96983.97;5000862;28;20050;-66
2021/09/24 10:15:09;;;;;;;5.75;3.15;;;;;;;20.19;38.33;96983.53;5000951;28;20096;-64
2021/09/24 10:17:36;;;;;;;8.55;4.05;;;;;;;20.11;38.97;96982.88;4994451;28;20464;-63
2021/09/24 10:20:04;;;;;;;5.18;4.05;;;;;;;20.47;38.55;97044.84;4995446;28;20631;-65
2021/09/24 10:22:31;;;;;;;3.63;3.33;;;;;;;20.04;37.38;96914.75;4995929;28;20501;-63
2021/09/24 10:24:58;;;;;;;4.68;3.88;;;;;;;19.06;36.84;96699.28;4997025;28;20499;-65
2021/09/24 10:27:29;;;;;;;3.70;3.40;;;;;;;20.86;36.71;96971.53;4981712;28;20054;-62
2021/09/24 10:29:59;;;;;;;4.40;3.60;;;;;;;20.73;37.13;96943.31;4980906;28;20058;-69
2021/09/24 10:32:28;;;;;;;10.35;6.15;;;;;;;20.98;36.07;96940.69;4983133;28;20046;-64
2021/09/24 10:35:02;;;;;;;4.15;3.75;;;;;;;21.09;36.38;96960.13;5000482;28;20065;-64
2021/09/24 10:37:30;;;;;;;;;;;;;;;20.52;37.43;96959.88;4990795;28;20474;-63
2021/09/24 10:40:02;;;;;;;3.65;3.35;;;;;;;18.81;38.22;96668.16;4998531;28;20385;-63
2021/09/24 10:42:35;;;;;;;6.57;4.38;;;;;;;20.54;37.57;96946.97;4995513;28;20058;-63
2021/09/24 10:45:02;;;;;;;4.60;4.20;;;;;;;20.38;37.88;96952.56;4993250;28;20506;-64
2021/09/24 10:47:44;;;;;;;7.55;4.28;;;;;;;20.77;37.67;96943.22;4985107;28;20065;-64
2021/09/24 10:50:29;;;;;;;8.82;5.95;;;;;;;21.06;38.10;96938.47;4983840;28;20050;-69
2021/09/24 10:53:11;;;;;;;5.70;3.90;;;;;;;21.30;36.88;96917.31;4984385;28;20086;-64
2021/09/24 10:55:41;;;;;;;3.67;3.38;;;;;;;21.43;36.17;96900.44;4983839;28;20051;-66
2021/09/24 10:58:31;;;;;;;5.32;3.97;;;;;;;21.49;36.25;96893.81;4984664;28;20103;-65
2021/09/24 11:01:27;;;;;;;7.30;3.78;;;;;;;21.52;36.74;96892.94;5004649;28;20057;-65
2021/09/24 11:04:10;;;;;;;4.47;3.53;;;;;;;21.77;36.13;96881.75;5003502;28;20046;-65
2021/09/24 11:06:48;;;;;;;4.15;3.70;;;;;;;21.83;35.38;96873.56;5003295;28;20435;-65
2021/09/24 11:09:17;;;;;;;4.53;3.92;;;;;;;21.17;35.99;96781.22;5002403;28;20060;-64
2021/09/24 11:12:01;;;;;;;4.53;4.10;;;;;;;21.91;35.78;96867.22;4992904;28;20065;-64
2021/09/24 11:14:37;;;;;;;6.30;4.13;;;;;;;21.52;35.16;96791.44;4989284;28;20492;-64
2021/09/24 11:17:09;;;;;;;4.78;3.80;;;;;;;21.47;35.24;96755.34;4993745;28;20525;-67
2021/09/24 11:19:48;;;;;;;6.40;3.80;;;;;;;22.02;34.46;96836.66;4994582;28;20050;-69
2021/09/24 11:22:22;;;;;;;4.53;4.15;;;;;;;22.06;34.13;96799.88;4985195;28;20061;-65
2021/09/24 11:25:08;;;;;;;6.20;4.00;;;;;;;21.72;34.67;96813.81;4999473;28;20064;-67
2021/09/24 11:27:37;;;;;;;5.03;4.43;;;;;;;22.17;33.91;96851.91;4986914;28;20058;-63
2021/09/24 11:30:04;;;;;;;4.75;4.10;;;;;;;22.36;32.66;96858.56;4989969;28;20053;-70
2021/09/24 11:32:32;;;;;;;5.07;3.67;;;;;;;22.39;32.79;96855.63;4991742;28;20137;-65
2021/09/24 11:35:00;;;;;;;4.45;3.97;;;;;;;21.46;32.75;96736.09;5003257;28;20395;-65
2021/09/24 11:37:32;;;;;;;4.95;3.10;;;;;;;21.44;32.47;96716.81;5003713;28;20054;-65
2021/09/24 11:40:18;;;;;;;5.88;3.47;;;;;;;22.11;32.57;96785.22;5003066;28;20061;-71